createdAt,value
2023-02-02T00:00:50.985Z,2.04
2023-02-02T00:03:39.556Z,2.08
2023-02-02T00:06:12.247Z,2.11
2023-02-02T00:08:44.750Z,2.13
2023-02-02T00:11:19.862Z,2.14
2023-02-02T00:13:52.006Z,2.16
2023-02-02T00:16:45.196Z,2.17
2023-02-02T00:19:19.523Z,2.18
2023-02-02T00:21:51.975Z,2.21
2023-02-02T00:24:25.352Z,2.23
2023-02-02T00:26:59.867Z,2.26
2023-02-02T00:29:32.673Z,2.27
2023-02-02T00:32:08.618Z,2.30
2023-02-02T00:34:40.693Z,2.31
2023-02-02T00:37:11.353Z,2.32
2023-02-02T00:39:46.199Z,2.34
2023-02-02T00:42:18.818Z,2.35
2023-02-02T00:45:08.289Z,2.36
2023-02-02T00:47:44.110Z,2.37
2023-02-02T00:50:20.028Z,2.38
2023-02-02T00:52:55.571Z,2.39
2023-02-02T00:55:28.187Z,2.39
2023-02-02T00:58:00.633Z,2.39
2023-02-02T01:00:33.021Z,2.41
2023-02-02T01:03:07.087Z,2.41
2023-02-02T01:05:40.342Z,2.40
2023-02-02T01:08:17.995Z,2.40
2023-02-02T01:10:53.189Z,2.40
2023-02-02T01:13:28.367Z,2.42
2023-02-02T01:16:02.540Z,2.42
2023-02-02T01:18:37.813Z,2.42
2023-02-02T01:21:13.885Z,2.43
2023-02-02T01:23:46.061Z,2.44
2023-02-02T01:26:19.153Z,2.45
2023-02-02T01:28:54.398Z,2.46
2023-02-02T01:31:34.142Z,2.48
2023-02-02T01:34:06.726Z,2.49
2023-02-02T01:36:42.191Z,2.51
2023-02-02T01:39:14.465Z,2.53
2023-02-02T01:41:55.990Z,2.54
2023-02-02T01:45:02.608Z,2.55
2023-02-02T01:47:57.648Z,2.55
2023-02-02T01:50:34.126Z,2.56
2023-02-02T01:53:15.270Z,2.57
2023-02-02T01:55:58.245Z,2.58
2023-02-02T01:58:34.543Z,2.59
2023-02-02T02:01:07.715Z,2.60
2023-02-02T02:03:40.358Z,2.61
2023-02-02T02:06:33.209Z,2.63
2023-02-02T02:09:15.705Z,2.64
2023-02-02T02:11:48.472Z,2.64
2023-02-02T02:14:38.195Z,2.65
2023-02-02T02:17:39.525Z,2.66
2023-02-02T02:21:01.595Z,2.68
2023-02-02T02:24:33.653Z,2.69
2023-02-02T02:27:18.071Z,2.72
2023-02-02T02:30:17.961Z,2.74
2023-02-02T02:32:58.302Z,2.75
2023-02-02T02:35:40.216Z,2.76
2023-02-02T02:38:21.834Z,2.77
2023-02-02T02:40:58.213Z,2.78
2023-02-02T02:43:36.540Z,2.81
2023-02-02T02:46:13.337Z,2.83
2023-02-02T02:48:47.639Z,2.84
2023-02-02T02:51:45.639Z,2.85
2023-02-02T02:54:29.293Z,2.87
2023-02-02T02:57:22.505Z,2.89
2023-02-02T03:00:05.182Z,2.90
2023-02-02T03:02:59.814Z,2.91
2023-02-02T03:05:47.263Z,2.91
2023-02-02T03:08:34.039Z,2.92
2023-02-02T03:11:08.131Z,2.93
2023-02-02T03:13:44.643Z,2.94
2023-02-02T03:16:37.699Z,2.94
2023-02-02T03:19:10.429Z,2.95
2023-02-02T03:21:47.934Z,2.96
2023-02-02T03:24:20.240Z,2.96
2023-02-02T03:26:52.954Z,2.97
2023-02-02T03:29:36.084Z,2.97
2023-02-02T03:32:06.757Z,2.98
2023-02-02T03:34:41.704Z,2.98
2023-02-02T03:37:16.352Z,3.00
2023-02-02T03:40:00.547Z,3.01
2023-02-02T03:42:32.797Z,3.02
2023-02-02T03:45:05.797Z,3.03
2023-02-02T03:47:40.909Z,3.04
2023-02-02T03:50:26.351Z,3.05
2023-02-02T03:53:10.020Z,3.05
2023-02-02T03:55:42.487Z,3.06
2023-02-02T03:58:17.641Z,3.07
2023-02-02T04:00:52.363Z,3.09
2023-02-02T04:03:24.769Z,3.09
2023-02-02T04:06:15.849Z,3.11
2023-02-02T04:08:47.932Z,3.10
2023-02-02T04:11:39.372Z,3.12
2023-02-02T04:14:32.447Z,3.13
2023-02-02T04:17:04.993Z,3.15
2023-02-02T04:19:42.281Z,3.15
2023-02-02T04:22:17.730Z,3.16
2023-02-02T04:24:59.916Z,3.19
2023-02-02T04:27:52.308Z,3.19
2023-02-02T04:30:24.656Z,3.19
2023-02-02T04:32:57.486Z,3.22
2023-02-02T04:35:32.336Z,3.24
2023-02-02T04:38:05.080Z,3.23
2023-02-02T04:40:41.308Z,3.21
2023-02-02T04:43:14.335Z,3.20
2023-02-02T04:45:46.739Z,3.20
2023-02-02T04:48:24.168Z,3.18
2023-02-02T04:51:01.644Z,3.18
2023-02-02T04:53:38.682Z,3.18
2023-02-02T04:56:16.349Z,3.17
2023-02-02T04:58:57.041Z,3.17
2023-02-02T05:01:31.842Z,3.16
2023-02-02T05:04:02.374Z,3.14
2023-02-02T05:06:34.762Z,3.14
2023-02-02T05:09:07.228Z,3.14
2023-02-02T05:11:44.614Z,3.12
2023-02-02T05:14:37.034Z,3.11
2023-02-02T05:17:12.270Z,3.11
2023-02-02T05:19:53.883Z,3.09
2023-02-02T05:22:29.731Z,3.06
2023-02-02T05:25:04.600Z,3.04
2023-02-02T05:27:37.185Z,3.00
2023-02-02T05:30:21.683Z,2.95
2023-02-02T05:32:59.566Z,2.91
2023-02-02T05:35:34.166Z,2.88
2023-02-02T05:38:06.411Z,2.87
2023-02-02T05:40:39.062Z,2.84
2023-02-02T05:43:11.344Z,2.82
2023-02-02T05:45:46.404Z,2.78
2023-02-02T05:48:18.730Z,2.76
2023-02-02T05:51:00.004Z,2.73
2023-02-02T05:53:33.389Z,2.71
2023-02-02T05:56:06.167Z,2.68
2023-02-02T05:58:38.295Z,2.69
2023-02-02T06:01:09.991Z,2.69
2023-02-02T06:03:42.320Z,2.69
2023-02-02T06:06:14.741Z,2.71
2023-02-02T06:08:46.967Z,2.73
2023-02-02T06:11:18.580Z,2.75
2023-02-02T06:13:50.756Z,2.75
2023-02-02T06:16:21.306Z,2.76
2023-02-02T06:18:53.987Z,2.77
2023-02-02T06:21:26.397Z,2.78
2023-02-02T06:23:59.464Z,2.80
2023-02-02T06:26:31.905Z,2.83
2023-02-02T06:29:04.185Z,2.85
2023-02-02T06:31:35.107Z,2.87
2023-02-02T06:34:08.423Z,2.88
2023-02-02T06:36:44.193Z,2.91
2023-02-02T06:39:16.407Z,2.93
2023-02-02T06:41:52.159Z,2.94
2023-02-02T06:44:24.241Z,2.96
2023-02-02T06:46:54.874Z,2.98
2023-02-02T06:49:27.045Z,2.98
2023-02-02T06:51:59.172Z,3.01
2023-02-02T06:54:31.468Z,3.02
2023-02-02T06:57:09.468Z,3.05
2023-02-02T06:59:44.351Z,3.07
2023-02-02T07:02:27.073Z,3.09
2023-02-02T07:05:01.833Z,3.10
2023-02-02T07:07:40.234Z,3.11
2023-02-02T07:11:11.547Z,3.11
2023-02-02T07:13:07.077Z,3.10
2023-02-02T07:15:41.508Z,3.08
2023-02-02T07:18:15.980Z,3.08
2023-02-02T07:20:46.647Z,3.06
2023-02-02T07:23:18.905Z,3.04
2023-02-02T07:26:03.227Z,3.04
2023-02-02T07:28:39.165Z,3.03
2023-02-02T07:31:19.252Z,3.04
2023-02-02T07:33:56.641Z,3.07
2023-02-02T07:36:29.123Z,3.11
2023-02-02T07:39:04.004Z,3.16
2023-02-02T07:41:39.539Z,3.22
2023-02-02T07:44:32.135Z,3.30
2023-02-02T07:47:13.524Z,3.40
2023-02-02T07:49:45.308Z,3.47
2023-02-02T07:52:24.824Z,3.53
2023-02-02T07:55:13.569Z,3.56
2023-02-02T07:57:46.520Z,3.56
2023-02-02T08:00:24.474Z,3.53
2023-02-02T08:02:59.654Z,3.49
2023-02-02T08:05:35.134Z,3.45
2023-02-02T08:08:21.430Z,3.41
2023-02-02T08:11:08.903Z,3.40
2023-02-02T08:13:45.242Z,3.40
2023-02-02T08:16:37.901Z,3.41
2023-02-02T08:19:14.147Z,3.44
2023-02-02T08:21:49.218Z,3.47
2023-02-02T08:24:25.144Z,3.42
2023-02-02T08:27:01.202Z,3.31
2023-02-02T08:29:36.318Z,3.23
2023-02-02T08:32:08.939Z,3.17
2023-02-02T08:34:41.481Z,3.14
2023-02-02T08:37:13.764Z,3.10
2023-02-02T08:39:46.136Z,3.07
2023-02-02T08:42:18.281Z,3.09
2023-02-02T08:46:01.675Z,3.12
2023-02-02T08:47:50.400Z,3.18
2023-02-02T08:50:31.558Z,3.27
2023-02-02T08:53:03.843Z,3.31
2023-02-02T08:55:34.391Z,3.30
2023-02-02T08:58:06.926Z,3.26
2023-02-02T09:00:39.381Z,3.17
2023-02-02T09:03:11.621Z,3.10
2023-02-02T09:05:44.246Z,3.05
2023-02-02T09:08:17.174Z,3.02
2023-02-02T09:10:49.285Z,3.02
2023-02-02T09:13:23.231Z,3.04
2023-02-02T09:15:55.538Z,3.07
2023-02-02T09:18:26.120Z,3.13
2023-02-02T09:21:00.417Z,3.21
2023-02-02T09:23:34.403Z,3.30
2023-02-02T09:26:17.853Z,3.40
2023-02-02T09:28:52.936Z,3.50
2023-02-02T09:31:28.830Z,3.61
2023-02-02T09:34:04.923Z,3.75
2023-02-02T09:36:37.945Z,3.88
2023-02-02T09:39:12.821Z,4.15
2023-02-02T09:42:10.247Z,4.36
2023-02-02T09:44:58.381Z,4.44
2023-02-02T09:47:41.195Z,4.46
2023-02-02T09:50:20.264Z,4.41
2023-02-02T09:52:59.316Z,4.39
2023-02-02T09:55:37.093Z,4.48
2023-02-02T09:58:15.711Z,4.64
2023-02-02T10:00:55.199Z,4.85
2023-02-02T10:03:33.934Z,5.06
2023-02-02T10:06:17.741Z,5.23
2023-02-02T10:08:55.132Z,5.33
2023-02-02T10:11:36.338Z,5.24
2023-02-02T10:14:14.408Z,5.08
2023-02-02T10:16:47.974Z,4.94
2023-02-02T10:19:35.096Z,4.79
2023-02-02T10:22:16.110Z,4.69
2023-02-02T10:24:50.502Z,4.60
2023-02-02T10:27:34.027Z,4.52
2023-02-02T10:30:16.828Z,4.46
2023-02-02T10:32:56.719Z,4.41
2023-02-02T10:35:40.397Z,4.42
2023-02-02T10:38:19.009Z,4.44
2023-02-02T10:41:03.779Z,4.43
2023-02-02T10:43:59.914Z,4.38
2023-02-02T10:46:36.040Z,4.28
2023-02-02T10:49:20.260Z,4.09
2023-02-02T10:52:05.379Z,3.90
2023-02-02T10:55:04.513Z,3.76
2023-02-02T10:57:52.594Z,3.69
2023-02-02T11:00:27.953Z,3.66
2023-02-02T11:03:04.675Z,3.66
2023-02-02T11:05:55.611Z,3.65
2023-02-02T11:08:34.111Z,3.64
2023-02-02T11:11:13.978Z,3.72
2023-02-02T11:13:54.051Z,3.83
2023-02-02T11:16:41.433Z,3.89
2023-02-02T11:19:32.329Z,3.93
2023-02-02T11:22:05.950Z,3.97
2023-02-02T11:24:47.005Z,3.98
2023-02-02T11:27:22.428Z,4.00
2023-02-02T11:29:57.032Z,4.02
2023-02-02T11:32:34.012Z,4.01
2023-02-02T11:35:20.907Z,4.01
2023-02-02T11:37:58.437Z,3.96
2023-02-02T11:40:34.387Z,3.86
2023-02-02T11:43:16.682Z,3.80
2023-02-02T11:45:55.863Z,3.76
2023-02-02T11:48:32.612Z,3.75
2023-02-02T11:51:09.359Z,3.75
2023-02-02T11:53:51.147Z,3.77
2023-02-02T11:56:26.301Z,3.81
2023-02-02T11:59:04.097Z,3.85
2023-02-02T12:01:40.918Z,3.89
2023-02-02T12:04:27.824Z,3.91
2023-02-02T12:07:00.312Z,3.89
2023-02-02T12:09:41.972Z,3.85
2023-02-02T12:12:31.219Z,3.79
2023-02-02T12:15:11.479Z,3.72
2023-02-02T12:17:45.829Z,3.70
2023-02-02T12:20:33.441Z,3.73
2023-02-02T12:23:35.222Z,3.76
2023-02-02T12:26:20.342Z,3.75
2023-02-02T12:29:25.989Z,3.82
2023-02-02T12:32:21.607Z,3.95
2023-02-02T12:35:16.326Z,4.12
2023-02-02T12:37:56.685Z,4.32
2023-02-02T12:40:47.856Z,4.53
2023-02-02T12:43:33.969Z,4.73
2023-02-02T12:46:41.793Z,4.92
2023-02-02T12:49:54.312Z,4.99
2023-02-02T12:52:43.626Z,5.00
2023-02-02T12:55:29.207Z,5.01
2023-02-02T12:58:13.956Z,4.99
2023-02-02T13:01:02.198Z,4.95
2023-02-02T13:03:51.944Z,4.91
2023-02-02T13:06:42.470Z,4.85
2023-02-02T13:09:20.024Z,4.76
2023-02-02T13:11:57.443Z,4.66
2023-02-02T13:14:33.919Z,4.56
2023-02-02T13:17:13.060Z,4.45
2023-02-02T13:19:57.655Z,4.35
2023-02-02T13:22:35.830Z,4.26
2023-02-02T13:25:19.825Z,4.14
2023-02-02T13:27:52.973Z,3.97
2023-02-02T13:30:40.116Z,3.80
2023-02-02T13:33:18.476Z,3.61
2023-02-02T13:35:55.915Z,3.48
2023-02-02T13:38:30.560Z,3.42
2023-02-02T13:41:08.561Z,3.40
2023-02-02T13:43:50.228Z,3.42
2023-02-02T13:46:38.661Z,3.44
2023-02-02T13:49:19.579Z,3.47
2023-02-02T13:52:16.738Z,3.48
2023-02-02T13:55:17.242Z,3.47
2023-02-02T13:58:04.400Z,3.41
2023-02-02T14:00:44.570Z,3.37
2023-02-02T14:03:32.323Z,3.37
2023-02-02T14:06:17.072Z,3.37
2023-02-02T14:09:00.325Z,3.35
2023-02-02T14:11:35.650Z,3.34
2023-02-02T14:14:34.683Z,3.34
2023-02-02T14:17:09.010Z,3.30
2023-02-02T14:19:59.830Z,3.26
2023-02-02T14:22:57.956Z,3.18
2023-02-02T14:29:00.888Z,3.06
2023-02-02T14:31:52.304Z,2.98
2023-02-02T14:34:35.799Z,2.93
2023-02-02T14:37:20.805Z,2.89
2023-02-02T14:39:58.231Z,2.85
2023-02-02T14:43:05.573Z,2.82
2023-02-02T14:45:39.448Z,2.77
2023-02-02T14:48:18.140Z,2.76
2023-02-02T14:50:51.364Z,2.75
2023-02-02T14:53:28.594Z,2.75
2023-02-02T14:56:01.459Z,2.74
2023-02-02T14:58:34.362Z,2.66
2023-02-02T15:01:12.879Z,2.59
2023-02-02T15:03:52.309Z,2.51
2023-02-02T15:06:34.125Z,2.45
2023-02-02T15:09:35.994Z,2.40
2023-02-02T15:12:31.499Z,2.35
2023-02-02T15:15:12.267Z,2.30
2023-02-02T15:18:11.675Z,2.28
2023-02-02T15:20:48.570Z,2.26
2023-02-02T15:23:28.852Z,2.25
2023-02-02T15:26:17.372Z,2.26
2023-02-02T15:28:54.428Z,2.27
2023-02-02T15:31:33.384Z,2.27
2023-02-02T15:34:09.951Z,2.28
2023-02-02T15:36:44.451Z,2.27
2023-02-02T15:39:29.902Z,2.25
2023-02-02T15:42:20.734Z,2.21
2023-02-02T15:44:50.417Z,2.18
2023-02-02T15:47:35.466Z,2.14
2023-02-02T15:50:17.244Z,2.09
2023-02-02T15:52:49.549Z,2.03
2023-02-02T15:55:22.327Z,2.00
2023-02-02T15:57:54.235Z,1.93
2023-02-02T16:00:30.192Z,1.87
2023-02-02T16:03:03.759Z,1.82
2023-02-02T16:05:47.340Z,1.78
2023-02-02T16:08:19.587Z,1.74
2023-02-02T16:10:48.893Z,1.72
2023-02-02T16:13:27.729Z,1.70
2023-02-02T16:16:22.729Z,1.66
2023-02-02T16:19:04.523Z,1.62
2023-02-02T16:21:35.536Z,1.57
2023-02-02T16:24:11.894Z,1.53
2023-02-02T16:26:44.321Z,1.50
2023-02-02T16:29:16.918Z,1.47
2023-02-02T16:31:46.944Z,1.45
2023-02-02T16:34:17.513Z,1.46
2023-02-02T16:37:05.063Z,1.45
2023-02-02T16:39:34.049Z,1.44
2023-02-02T16:42:22.775Z,1.41
2023-02-02T16:45:01.500Z,1.39
2023-02-02T16:47:37.470Z,1.36
2023-02-02T16:50:33.637Z,1.34
2023-02-02T16:53:05.420Z,1.30
2023-02-02T16:55:49.799Z,1.28
2023-02-02T16:58:28.365Z,1.25
2023-02-02T17:01:16.525Z,1.22
2023-02-02T17:04:14.436Z,1.21
2023-02-02T17:07:14.994Z,1.20
2023-02-02T17:09:46.962Z,1.19
2023-02-02T17:12:33.590Z,1.20
2023-02-02T17:15:28.616Z,1.19
2023-02-02T17:18:00.329Z,1.18
2023-02-02T17:20:30.445Z,1.17
2023-02-02T17:23:02.646Z,1.16
2023-02-02T17:25:32.994Z,1.14
2023-02-02T17:28:03.958Z,1.13
2023-02-02T17:30:33.514Z,1.11
2023-02-02T17:33:02.400Z,1.09
2023-02-02T17:35:47.387Z,1.09
2023-02-02T17:38:21.050Z,1.10
2023-02-02T17:40:51.388Z,1.12
2023-02-02T17:43:20.687Z,1.14
2023-02-02T17:45:49.812Z,1.15
2023-02-02T17:48:20.197Z,1.16
2023-02-02T17:50:49.665Z,1.15
2023-02-02T17:53:20.476Z,1.15
2023-02-02T17:55:50.863Z,1.13
2023-02-02T17:58:19.961Z,1.11
2023-02-02T18:00:52.500Z,1.08
2023-02-02T18:03:27.798Z,1.05
2023-02-02T18:05:59.130Z,1.02
2023-02-02T18:08:31.935Z,0.99
2023-02-02T18:11:01.159Z,0.96
2023-02-02T18:13:33.791Z,0.93
2023-02-02T18:16:05.770Z,0.91
2023-02-02T18:18:34.576Z,0.89
2023-02-02T18:21:07.013Z,0.88
2023-02-02T18:23:38.797Z,0.87
2023-02-02T18:26:17.088Z,0.88
2023-02-02T18:28:48.339Z,0.89
2023-02-02T18:31:19.181Z,0.90
2023-02-02T18:33:48.582Z,0.91
2023-02-02T18:36:19.970Z,0.90
2023-02-02T18:38:50.769Z,0.90
2023-02-02T18:41:20.948Z,0.89
2023-02-02T18:44:01.040Z,0.89
2023-02-02T18:46:33.310Z,0.87
2023-02-02T18:49:02.426Z,0.86
2023-02-02T18:51:34.361Z,0.84
2023-02-02T18:54:03.684Z,0.82
2023-02-02T18:56:32.559Z,0.81
2023-02-02T18:59:05.544Z,0.78
2023-02-02T19:01:34.951Z,0.75
2023-02-02T19:04:04.229Z,0.73
2023-02-02T19:06:50.651Z,0.71
2023-02-02T19:09:22.406Z,0.69
2023-02-02T19:11:54.279Z,0.66
2023-02-02T19:14:31.351Z,0.64
2023-02-02T19:17:10.375Z,0.60
2023-02-02T19:19:42.450Z,0.57
2023-02-02T19:22:19.738Z,0.56
2023-02-02T19:24:53.217Z,0.54
2023-02-02T19:27:24.530Z,0.51
2023-02-02T19:32:46.704Z,0.48
2023-02-02T19:35:20.869Z,0.45
2023-02-02T19:37:52.322Z,0.43
2023-02-02T19:40:24.574Z,0.41
2023-02-02T19:42:56.563Z,0.39
2023-02-02T19:45:28.497Z,0.38
2023-02-02T19:48:00.235Z,0.39
2023-02-02T19:50:36.416Z,0.39
2023-02-02T19:53:14.351Z,0.40
2023-02-02T19:55:45.189Z,0.41
2023-02-02T19:58:19.712Z,0.41
2023-02-02T20:00:52.946Z,0.42
2023-02-02T20:03:26.185Z,0.43
2023-02-02T20:05:57.530Z,0.44
2023-02-02T20:08:38.608Z,0.45
2023-02-02T20:11:31.349Z,0.45
2023-02-02T20:14:27.899Z,0.45
2023-02-02T20:17:00.868Z,0.47
2023-02-02T20:19:34.804Z,0.48
2023-02-02T20:22:19.538Z,0.49
2023-02-02T20:24:49.454Z,0.50
2023-02-02T20:27:23.339Z,0.51
2023-02-02T20:30:05.567Z,0.52
2023-02-02T20:32:41.646Z,0.53
2023-02-02T20:35:38.532Z,0.56
2023-02-02T20:38:21.546Z,0.59
2023-02-02T20:40:50.710Z,0.61
2023-02-02T20:43:23.530Z,0.63
2023-02-02T20:45:53.999Z,0.63
2023-02-02T20:48:27.992Z,0.64
2023-02-02T20:50:58.625Z,0.61
2023-02-02T20:53:27.876Z,0.59
2023-02-02T20:56:00.333Z,0.58
2023-02-02T20:58:32.332Z,0.56
2023-02-02T21:01:05.368Z,0.55
2023-02-02T21:03:41.352Z,0.51
2023-02-02T21:06:10.435Z,0.47
2023-02-02T21:08:43.213Z,0.44
2023-02-02T21:11:18.030Z,0.41
2023-02-02T21:13:55.357Z,0.39
2023-02-02T21:16:28.424Z,0.38
2023-02-02T21:19:00.177Z,0.39
2023-02-02T21:21:37.869Z,0.41
2023-02-02T21:24:10.044Z,0.43
2023-02-02T21:26:41.020Z,0.45
2023-02-02T21:29:10.085Z,0.46
2023-02-02T21:31:39.413Z,0.46
2023-02-02T21:34:20.270Z,0.48
2023-02-02T21:36:50.082Z,0.48
2023-02-02T21:39:24.468Z,0.47
2023-02-02T21:42:00.701Z,0.47
2023-02-02T21:44:29.536Z,0.48
2023-02-02T21:47:01.829Z,0.47
2023-02-02T21:49:38.183Z,0.46
2023-02-02T21:52:16.184Z,0.45
2023-02-02T21:54:46.392Z,0.44
2023-02-02T21:57:18.211Z,0.44
2023-02-02T21:59:50.339Z,0.41
2023-02-02T22:02:38.680Z,0.39
2023-02-02T22:05:18.008Z,0.35
2023-02-02T22:07:49.368Z,0.30
2023-02-02T22:10:36.990Z,0.25
2023-02-02T22:13:16.327Z,0.20
2023-02-02T22:15:51.608Z,0.14
2023-02-02T22:18:23.061Z,0.12
2023-02-02T22:20:55.700Z,0.07
2023-02-02T22:23:27.153Z,0.02
2023-02-02T22:25:58.303Z,-0.03
2023-02-02T22:28:32.512Z,-0.08
2023-02-02T22:31:01.944Z,-0.12
2023-02-02T22:33:31.217Z,-0.16
2023-02-02T22:36:00.208Z,-0.19
2023-02-02T22:38:29.007Z,-0.21
2023-02-02T22:41:01.026Z,-0.24
2023-02-02T22:43:29.982Z,-0.26
2023-02-02T22:45:58.940Z,-0.29
2023-02-02T22:48:27.839Z,-0.32
2023-02-02T22:51:00.030Z,-0.35
2023-02-02T22:53:28.923Z,-0.37
2023-02-02T22:55:57.791Z,-0.40
2023-02-02T22:58:29.258Z,-0.45
2023-02-02T23:00:58.130Z,-0.47
2023-02-02T23:03:27.071Z,-0.50
2023-02-02T23:05:56.118Z,-0.52
2023-02-02T23:08:27.482Z,-0.56
2023-02-02T23:11:01.376Z,-0.59
2023-02-02T23:13:50.540Z,-0.63
2023-02-02T23:16:24.276Z,-0.66
2023-02-02T23:19:13.681Z,-0.69
2023-02-02T23:21:42.717Z,-0.71
2023-02-02T23:24:12.025Z,-0.73
2023-02-02T23:26:41.036Z,-0.74
2023-02-02T23:29:09.924Z,-0.77
2023-02-02T23:31:38.754Z,-0.78
2023-02-02T23:34:08.320Z,-0.81
2023-02-02T23:36:37.287Z,-0.84
2023-02-02T23:39:08.533Z,-0.85
2023-02-02T23:41:37.845Z,-0.88
2023-02-02T23:44:06.649Z,-0.89
2023-02-02T23:46:39.861Z,-0.91
2023-02-02T23:49:08.899Z,-0.93
2023-02-02T23:51:37.704Z,-0.95
2023-02-02T23:54:06.933Z,-0.96
2023-02-02T23:56:35.731Z,-0.99
2023-02-02T23:59:07.139Z,-1.01
